createdAt,value
2019-01-16T00:00:16.274Z,9.52
2019-01-16T00:01:16.192Z,9.51
2019-01-16T00:02:16.191Z,9.51
2019-01-16T00:03:16.215Z,9.56
2019-01-16T00:04:16.234Z,9.55
2019-01-16T00:05:16.225Z,9.62
2019-01-16T00:06:16.219Z,9.49
2019-01-16T00:07:16.327Z,9.47
2019-01-16T00:08:16.233Z,9.48
2019-01-16T00:09:16.289Z,9.49
2019-01-16T00:10:16.240Z,9.48
2019-01-16T00:11:16.247Z,9.55
2019-01-16T00:12:16.248Z,9.58
2019-01-16T00:13:16.293Z,9.58
2019-01-16T00:14:16.276Z,9.55
2019-01-16T00:15:16.298Z,9.58
2019-01-16T00:16:16.249Z,9.47
2019-01-16T00:17:16.266Z,9.59
2019-01-16T00:18:17.264Z,9.62
2019-01-16T00:19:16.266Z,9.58
2019-01-16T00:20:16.274Z,9.47
2019-01-16T00:21:16.667Z,9.63
2019-01-16T00:22:16.300Z,9.52
2019-01-16T00:23:16.282Z,9.62
2019-01-16T00:24:16.300Z,9.59
2019-01-16T00:25:16.338Z,9.63
2019-01-16T00:26:16.329Z,9.56
2019-01-16T00:27:16.317Z,9.52
2019-01-16T00:28:16.357Z,9.59
2019-01-16T00:29:16.316Z,9.58
2019-01-16T00:30:16.412Z,9.62
2019-01-16T00:31:16.407Z,9.59
2019-01-16T00:32:16.373Z,9.59
2019-01-16T00:33:16.355Z,9.70
2019-01-16T00:34:16.348Z,9.74
2019-01-16T00:35:16.355Z,9.67
2019-01-16T00:36:16.380Z,9.67
2019-01-16T00:37:16.368Z,9.69
2019-01-16T00:38:16.368Z,9.76
2019-01-16T00:39:16.419Z,9.74
2019-01-16T00:40:16.376Z,9.69
2019-01-16T00:41:16.397Z,9.80
2019-01-16T00:42:16.403Z,9.72
2019-01-16T00:43:16.385Z,9.81
2019-01-16T00:44:16.389Z,9.77
2019-01-16T00:45:16.401Z,9.72
2019-01-16T00:46:16.451Z,9.77
2019-01-16T00:47:16.404Z,9.76
2019-01-16T00:48:16.413Z,9.80
2019-01-16T00:49:16.459Z,9.88
2019-01-16T00:50:16.413Z,9.73
2019-01-16T00:51:16.421Z,9.80
2019-01-16T00:52:16.471Z,9.73
2019-01-16T00:53:16.460Z,9.76
2019-01-16T00:54:16.454Z,9.76
2019-01-16T00:55:16.456Z,9.84
2019-01-16T00:56:16.447Z,9.77
2019-01-16T00:57:16.474Z,9.76
2019-01-16T00:58:16.478Z,9.69
2019-01-16T00:59:16.529Z,9.76
2019-01-16T01:00:16.485Z,9.76
2019-01-16T01:01:16.503Z,9.88
2019-01-16T01:02:16.606Z,9.76
2019-01-16T01:03:16.485Z,9.74
2019-01-16T01:04:16.472Z,9.76
2019-01-16T01:05:16.507Z,9.77
2019-01-16T01:06:16.484Z,9.73
2019-01-16T01:07:16.525Z,9.77
2019-01-16T01:08:16.500Z,9.90
2019-01-16T01:09:16.506Z,9.85
2019-01-16T01:10:16.521Z,9.85
2019-01-16T01:11:16.520Z,9.85
2019-01-16T01:12:16.561Z,9.85
2019-01-16T01:13:16.525Z,9.91
2019-01-16T01:14:16.523Z,9.90
2019-01-16T01:15:16.539Z,9.85
2019-01-16T01:16:16.533Z,9.92
2019-01-16T01:17:16.594Z,9.88
2019-01-16T01:18:16.581Z,9.90
2019-01-16T01:19:16.553Z,9.82
2019-01-16T01:20:16.556Z,9.90
2019-01-16T01:21:16.588Z,9.87
2019-01-16T01:22:16.571Z,9.82
2019-01-16T01:23:16.599Z,9.88
2019-01-16T01:24:16.595Z,9.90
2019-01-16T01:25:16.577Z,9.77
2019-01-16T01:26:16.580Z,9.87
2019-01-16T01:27:16.585Z,9.85
2019-01-16T01:28:16.635Z,9.85
2019-01-16T01:29:16.621Z,9.76
2019-01-16T01:30:16.609Z,9.76
2019-01-16T01:31:16.614Z,9.85
2019-01-16T01:32:16.616Z,9.67
2019-01-16T01:33:16.631Z,9.80
2019-01-16T01:34:16.629Z,9.73
2019-01-16T01:35:16.627Z,9.69
2019-01-16T01:36:16.622Z,9.72
2019-01-16T01:37:16.638Z,9.72
2019-01-16T01:38:16.660Z,9.77
2019-01-16T01:39:16.671Z,9.73
2019-01-16T01:40:16.650Z,9.81
2019-01-16T01:41:16.665Z,9.81
2019-01-16T01:42:16.674Z,9.74
2019-01-16T01:43:16.667Z,9.74
2019-01-16T01:44:16.692Z,9.82
2019-01-16T01:45:16.663Z,9.87
2019-01-16T01:46:16.734Z,10.00
2019-01-16T01:47:16.675Z,9.87
2019-01-16T01:48:16.723Z,9.91
2019-01-16T01:49:16.758Z,9.97
2019-01-16T01:50:16.711Z,9.84
2019-01-16T01:51:16.712Z,9.88
2019-01-16T01:52:16.710Z,9.97
2019-01-16T01:53:16.723Z,9.92
2019-01-16T01:54:16.704Z,9.92
2019-01-16T01:55:16.748Z,9.90
2019-01-16T01:56:16.714Z,9.92
2019-01-16T01:57:16.730Z,10.07
2019-01-16T01:58:16.775Z,9.92
2019-01-16T01:59:16.731Z,9.92
2019-01-16T02:00:16.800Z,10.05
2019-01-16T02:01:16.765Z,10.09
2019-01-16T02:02:16.757Z,10.05
2019-01-16T02:03:16.757Z,10.10
2019-01-16T02:04:16.770Z,10.10
2019-01-16T02:05:16.763Z,10.09
2019-01-16T02:06:16.809Z,10.13
2019-01-16T02:07:16.811Z,10.12
2019-01-16T02:08:16.785Z,10.10
2019-01-16T02:09:16.784Z,10.07
2019-01-16T02:10:16.823Z,10.07
2019-01-16T02:11:16.819Z,9.97
2019-01-16T02:12:16.805Z,9.91
2019-01-16T02:13:16.809Z,9.88
2019-01-16T02:14:16.821Z,10.00
2019-01-16T02:15:16.806Z,9.95
2019-01-16T02:16:16.815Z,9.99
2019-01-16T02:17:16.853Z,9.94
2019-01-16T02:18:16.820Z,10.10
2019-01-16T02:19:16.838Z,10.07
2019-01-16T02:20:16.837Z,10.10
2019-01-16T02:21:16.882Z,9.99
2019-01-16T02:22:16.896Z,10.06
2019-01-16T02:23:16.844Z,10.05
2019-01-16T02:24:16.852Z,10.13
2019-01-16T02:25:16.855Z,10.15
2019-01-16T02:26:16.865Z,10.09
2019-01-16T02:27:16.881Z,10.13
2019-01-16T02:28:16.909Z,10.12
2019-01-16T02:29:16.903Z,10.15
2019-01-16T02:30:16.889Z,10.15
2019-01-16T02:31:16.880Z,10.15
2019-01-16T02:32:16.891Z,10.12
2019-01-16T02:33:16.939Z,10.09
2019-01-16T02:34:16.902Z,10.15
2019-01-16T02:35:16.965Z,10.12
2019-01-16T02:36:16.926Z,10.02
2019-01-16T02:37:16.972Z,9.92
2019-01-16T02:38:16.930Z,9.92
2019-01-16T02:39:16.960Z,10.07
2019-01-16T02:40:16.949Z,10.06
2019-01-16T02:41:16.942Z,10.12
2019-01-16T02:42:16.953Z,10.05
2019-01-16T02:43:16.943Z,10.05
2019-01-16T02:44:16.988Z,10.06
2019-01-16T02:45:16.956Z,10.13
2019-01-16T02:46:16.959Z,10.10
2019-01-16T02:47:16.980Z,10.12
2019-01-16T02:48:16.963Z,10.05
2019-01-16T02:49:17.035Z,10.05
2019-01-16T02:50:16.994Z,9.97
2019-01-16T02:51:16.987Z,10.05
2019-01-16T02:52:16.992Z,10.12
2019-01-16T02:53:17.006Z,10.12
2019-01-16T02:54:16.995Z,10.02
2019-01-16T02:55:17.062Z,10.05
2019-01-16T02:56:17.020Z,9.94
2019-01-16T02:57:17.049Z,9.91
2019-01-16T02:58:17.046Z,10.07
2019-01-16T02:59:17.038Z,10.02
2019-01-16T03:00:17.042Z,10.09
2019-01-16T03:01:17.053Z,10.06
2019-01-16T03:02:17.030Z,10.07
2019-01-16T03:03:17.063Z,10.09
2019-01-16T03:04:17.050Z,10.05
2019-01-16T03:05:17.063Z,9.99
2019-01-16T03:06:17.091Z,10.06
2019-01-16T03:07:17.063Z,10.13
2019-01-16T03:08:17.130Z,10.13
2019-01-16T03:09:17.076Z,10.03
2019-01-16T03:10:17.076Z,10.07
2019-01-16T03:11:17.071Z,10.15
2019-01-16T03:12:17.105Z,10.06
2019-01-16T03:13:17.317Z,10.13
2019-01-16T03:14:17.107Z,10.15
2019-01-16T03:15:17.104Z,10.17
2019-01-16T03:16:17.237Z,10.07
2019-01-16T03:17:17.130Z,10.15
2019-01-16T03:18:17.119Z,10.17
2019-01-16T03:19:17.120Z,10.06
2019-01-16T03:20:17.212Z,10.15
2019-01-16T03:21:17.131Z,10.18
2019-01-16T03:22:17.132Z,10.12
2019-01-16T03:23:17.164Z,10.13
2019-01-16T03:24:17.764Z,10.13
2019-01-16T03:25:17.168Z,10.18
2019-01-16T03:26:17.169Z,10.12
2019-01-16T03:27:17.159Z,10.23
2019-01-16T03:28:17.165Z,10.13
2019-01-16T03:29:17.191Z,10.25
2019-01-16T03:30:17.164Z,10.23
2019-01-16T03:31:17.218Z,10.27
2019-01-16T03:32:17.245Z,10.20
2019-01-16T03:33:17.195Z,10.25
2019-01-16T03:34:17.277Z,10.21
2019-01-16T03:35:17.196Z,10.25
2019-01-16T03:36:17.338Z,10.21
2019-01-16T03:37:17.262Z,10.25
2019-01-16T03:38:17.202Z,10.12
2019-01-16T03:39:17.341Z,10.15
2019-01-16T03:40:17.219Z,10.24
2019-01-16T03:41:17.353Z,10.13
2019-01-16T03:42:17.246Z,10.20
2019-01-16T03:43:17.231Z,10.10
2019-01-16T03:44:17.267Z,10.10
2019-01-16T03:45:17.247Z,10.10
2019-01-16T03:46:17.262Z,10.17
2019-01-16T03:47:17.254Z,10.09
2019-01-16T03:48:17.286Z,10.06
2019-01-16T03:49:17.313Z,10.10
2019-01-16T03:50:17.271Z,10.12
2019-01-16T03:51:17.265Z,10.13
2019-01-16T03:52:17.294Z,10.10
2019-01-16T03:53:17.313Z,10.12
2019-01-16T03:54:17.330Z,10.15
2019-01-16T03:55:17.292Z,10.07
2019-01-16T03:56:17.414Z,10.00
2019-01-16T03:57:17.304Z,10.09
2019-01-16T03:58:17.321Z,10.12
2019-01-16T03:59:17.322Z,10.07
2019-01-16T04:00:17.411Z,10.09
2019-01-16T04:01:17.314Z,10.06
2019-01-16T04:02:17.375Z,10.10
2019-01-16T04:03:17.452Z,10.09
2019-01-16T04:04:17.334Z,10.13
2019-01-16T04:05:17.417Z,10.12
2019-01-16T04:06:17.342Z,10.13
2019-01-16T04:07:17.363Z,10.10
2019-01-16T04:08:17.353Z,10.13
2019-01-16T04:09:17.372Z,10.15
2019-01-16T04:10:17.386Z,10.05
2019-01-16T04:11:17.392Z,9.92
2019-01-16T04:12:17.389Z,9.94
2019-01-16T04:13:17.368Z,9.99
2019-01-16T04:14:17.384Z,10.07
2019-01-16T04:15:17.384Z,9.92
2019-01-16T04:16:17.434Z,9.91
2019-01-16T04:17:17.405Z,9.95
2019-01-16T04:18:17.396Z,9.95
2019-01-16T04:19:21.728Z,9.92
2019-01-16T04:20:17.414Z,9.92
2019-01-16T04:21:17.443Z,9.92
2019-01-16T04:22:17.427Z,9.88
2019-01-16T04:23:17.435Z,9.82
2019-01-16T04:24:17.445Z,9.87
2019-01-16T04:25:17.439Z,9.90
2019-01-16T04:26:17.443Z,9.85
2019-01-16T04:27:17.470Z,9.94
2019-01-16T04:28:17.463Z,9.88
2019-01-16T04:29:17.452Z,9.91
2019-01-16T04:30:17.466Z,10.00
2019-01-16T04:31:17.478Z,9.90
2019-01-16T04:32:17.514Z,9.88
2019-01-16T04:33:17.508Z,9.88
2019-01-16T04:34:17.471Z,9.87
2019-01-16T04:35:17.522Z,9.77
2019-01-16T04:36:17.485Z,9.87
2019-01-16T04:37:17.483Z,9.85
2019-01-16T04:38:17.513Z,9.87
2019-01-16T04:39:17.505Z,9.80
2019-01-16T04:40:17.504Z,9.85
2019-01-16T04:41:17.506Z,9.90
2019-01-16T04:42:17.574Z,9.82
2019-01-16T04:43:17.520Z,9.81
2019-01-16T04:44:17.529Z,9.88
2019-01-16T04:45:17.557Z,9.90
2019-01-16T04:46:17.526Z,9.94
2019-01-16T04:47:17.541Z,9.97
2019-01-16T04:48:17.569Z,9.92
2019-01-16T04:49:17.550Z,9.92
2019-01-16T04:50:17.568Z,9.82
2019-01-16T04:51:17.561Z,9.84
2019-01-16T04:52:17.587Z,9.91
2019-01-16T04:53:17.593Z,9.90
2019-01-16T04:54:17.580Z,9.94
2019-01-16T04:55:17.586Z,9.88
2019-01-16T04:56:17.589Z,9.87
2019-01-16T04:57:17.588Z,9.85
2019-01-16T04:58:17.615Z,9.85
2019-01-16T04:59:17.613Z,9.81
2019-01-16T05:00:17.656Z,9.80
2019-01-16T05:01:17.602Z,9.84
2019-01-16T05:02:17.615Z,9.87
2019-01-16T05:03:17.664Z,9.82
2019-01-16T05:04:17.612Z,9.90
2019-01-16T05:05:17.629Z,9.97
2019-01-16T05:06:17.626Z,9.92
2019-01-16T05:07:17.625Z,9.95
2019-01-16T05:08:17.673Z,9.85
2019-01-16T05:09:17.636Z,9.94
2019-01-16T05:10:17.686Z,9.97
2019-01-16T05:11:17.644Z,9.87
2019-01-16T05:12:17.655Z,9.88
2019-01-16T05:13:17.684Z,9.91
2019-01-16T05:14:17.678Z,9.82
2019-01-16T05:15:17.696Z,9.92
2019-01-16T05:16:17.691Z,9.85
2019-01-16T05:17:17.700Z,9.82
2019-01-16T05:18:17.720Z,9.82
2019-01-16T05:19:17.699Z,9.76
2019-01-16T05:20:17.707Z,9.69
2019-01-16T05:21:17.717Z,9.84
2019-01-16T05:22:17.711Z,9.90
2019-01-16T05:23:17.736Z,9.82
2019-01-16T05:24:17.725Z,9.73
2019-01-16T05:25:17.715Z,9.80
2019-01-16T05:26:17.745Z,9.84
2019-01-16T05:27:17.726Z,9.88
2019-01-16T05:28:17.850Z,9.87
2019-01-16T05:29:17.761Z,9.80
2019-01-16T05:30:17.760Z,9.90
2019-01-16T05:31:17.751Z,9.94
2019-01-16T05:32:17.840Z,10.00
2019-01-16T05:33:17.763Z,9.90
2019-01-16T05:34:17.813Z,9.91
2019-01-16T05:35:17.822Z,9.94
2019-01-16T05:36:17.778Z,9.87
2019-01-16T05:37:17.826Z,9.88
2019-01-16T05:38:17.802Z,9.90
2019-01-16T05:39:17.806Z,9.92
2019-01-16T05:40:17.789Z,9.91
2019-01-16T05:41:17.793Z,9.80
2019-01-16T05:42:17.807Z,9.87
2019-01-16T05:43:17.830Z,9.90
2019-01-16T05:44:17.802Z,9.87
2019-01-16T05:45:17.846Z,9.91
2019-01-16T05:46:17.814Z,9.85
2019-01-16T05:47:17.843Z,9.84
2019-01-16T05:48:17.867Z,9.81
2019-01-16T05:49:17.824Z,9.84
2019-01-16T05:50:17.837Z,9.85
2019-01-16T05:51:17.846Z,9.84
2019-01-16T05:52:17.852Z,9.88
2019-01-16T05:53:17.889Z,9.73
2019-01-16T05:54:18.015Z,9.77
2019-01-16T05:55:17.900Z,9.77
2019-01-16T05:56:17.866Z,9.82
2019-01-16T05:57:17.876Z,9.74
2019-01-16T05:58:17.911Z,9.74
2019-01-16T05:59:17.917Z,9.81
2019-01-16T06:00:17.883Z,9.82
2019-01-16T06:01:17.889Z,9.80
2019-01-16T06:02:17.901Z,9.72
2019-01-16T06:03:17.918Z,9.81
2019-01-16T06:04:17.923Z,9.77
2019-01-16T06:05:17.921Z,9.82
2019-01-16T06:06:17.926Z,9.85
2019-01-16T06:07:17.921Z,9.82
2019-01-16T06:08:17.928Z,9.90
2019-01-16T06:09:17.943Z,9.90
2019-01-16T06:10:18.009Z,9.97
2019-01-16T06:11:17.927Z,9.91
2019-01-16T06:12:17.946Z,9.90
2019-01-16T06:13:17.942Z,9.94
2019-01-16T06:14:17.951Z,9.91
2019-01-16T06:15:17.962Z,10.09
2019-01-16T06:16:17.992Z,9.97
2019-01-16T06:17:17.996Z,9.94
2019-01-16T06:18:17.970Z,9.94
2019-01-16T06:19:17.968Z,9.97
2019-01-16T06:20:18.066Z,9.91
2019-01-16T06:21:18.025Z,9.91
2019-01-16T06:22:17.989Z,9.91
2019-01-16T06:23:17.996Z,9.88
2019-01-16T06:24:18.023Z,9.92
2019-01-16T06:25:18.090Z,9.94
2019-01-16T06:26:18.050Z,9.84
2019-01-16T06:27:18.013Z,9.85
2019-01-16T06:28:18.045Z,9.88
2019-01-16T06:29:18.029Z,10.00
2019-01-16T06:30:18.031Z,9.97
2019-01-16T06:31:18.049Z,9.90
2019-01-16T06:32:18.092Z,9.97
2019-01-16T06:33:18.049Z,9.94
2019-01-16T06:34:18.086Z,9.90
2019-01-16T06:35:18.064Z,9.95
2019-01-16T06:36:18.068Z,9.95
2019-01-16T06:37:18.057Z,10.00
2019-01-16T06:38:18.143Z,9.99
2019-01-16T06:39:18.094Z,9.95
2019-01-16T06:40:18.078Z,9.88
2019-01-16T06:41:18.113Z,9.97
2019-01-16T06:42:18.085Z,9.87
2019-01-16T06:43:18.078Z,10.00
2019-01-16T06:44:18.111Z,9.99
2019-01-16T06:45:18.131Z,9.99
2019-01-16T06:46:18.143Z,9.92
2019-01-16T06:47:18.112Z,9.94
2019-01-16T06:48:18.338Z,10.00
2019-01-16T06:49:18.147Z,10.03
2019-01-16T06:50:18.132Z,9.97
2019-01-16T06:51:18.148Z,9.87
2019-01-16T06:52:18.136Z,9.95
2019-01-16T06:53:18.141Z,9.95
2019-01-16T06:54:18.171Z,9.99
2019-01-16T06:55:18.156Z,9.99
2019-01-16T06:56:18.171Z,9.94
2019-01-16T06:57:18.216Z,9.94
2019-01-16T06:58:18.159Z,9.91
2019-01-16T06:59:18.175Z,9.95
2019-01-16T07:00:18.181Z,10.10
2019-01-16T07:01:18.163Z,10.05
2019-01-16T07:02:18.187Z,10.05
2019-01-16T07:03:18.232Z,10.05
2019-01-16T07:04:18.183Z,10.07
2019-01-16T07:05:18.231Z,10.05
2019-01-16T07:06:18.197Z,10.12
2019-01-16T07:07:18.201Z,10.09
2019-01-16T07:08:18.195Z,10.06
2019-01-16T07:09:18.218Z,10.09
2019-01-16T07:10:18.227Z,10.12
2019-01-16T07:11:18.278Z,10.03
2019-01-16T07:12:18.228Z,9.97
2019-01-16T07:13:18.224Z,10.12
2019-01-16T07:14:18.226Z,10.05
2019-01-16T07:15:18.246Z,10.09
2019-01-16T07:16:18.272Z,10.15
2019-01-16T07:17:18.252Z,9.97
2019-01-16T07:18:18.266Z,9.94
2019-01-16T07:19:18.294Z,9.91
2019-01-16T07:20:18.269Z,9.92
2019-01-16T07:21:18.362Z,9.95
2019-01-16T07:22:18.283Z,9.94
2019-01-16T07:23:18.290Z,9.88
2019-01-16T07:24:18.296Z,9.97
2019-01-16T07:25:18.300Z,9.88
2019-01-16T07:26:18.282Z,9.99
2019-01-16T07:27:18.326Z,9.94
2019-01-16T07:28:18.351Z,10.00
2019-01-16T07:29:18.297Z,9.97
2019-01-16T07:30:18.315Z,9.95
2019-01-16T07:31:18.343Z,9.92
2019-01-16T07:32:18.327Z,9.90
2019-01-16T07:33:18.372Z,9.92
2019-01-16T07:34:18.366Z,10.02
2019-01-16T07:35:18.361Z,9.94
2019-01-16T07:36:18.407Z,10.02
2019-01-16T07:37:18.348Z,9.92
2019-01-16T07:38:18.378Z,10.00
2019-01-16T07:39:18.359Z,9.95
2019-01-16T07:40:18.361Z,9.95
2019-01-16T07:41:18.360Z,10.02
2019-01-16T07:42:18.385Z,9.91
2019-01-16T07:43:18.474Z,9.92
2019-01-16T07:44:18.379Z,10.00
2019-01-16T07:45:18.393Z,10.00
2019-01-16T07:46:18.403Z,10.05
2019-01-16T07:47:18.408Z,10.00
2019-01-16T07:48:18.411Z,10.10
2019-01-16T07:49:18.473Z,10.10
2019-01-16T07:50:18.687Z,10.02
2019-01-16T07:51:18.595Z,10.06
2019-01-16T07:52:18.593Z,10.09
2019-01-16T07:53:18.515Z,10.06
2019-01-16T07:54:18.447Z,10.06
2019-01-16T07:55:18.434Z,10.07
2019-01-16T07:56:18.450Z,10.13
2019-01-16T07:57:19.292Z,10.15
2019-01-16T07:58:18.482Z,10.12
2019-01-16T07:59:21.945Z,10.17
2019-01-16T08:00:19.005Z,10.18
2019-01-16T08:01:19.096Z,10.15
2019-01-16T08:02:18.786Z,10.09
2019-01-16T08:03:18.495Z,10.09
2019-01-16T08:04:18.640Z,10.13
2019-01-16T08:05:19.179Z,10.13
2019-01-16T08:06:18.498Z,10.13
2019-01-16T08:07:18.487Z,10.15
2019-01-16T08:08:18.495Z,10.15
2019-01-16T08:09:18.505Z,10.18
2019-01-16T08:10:18.561Z,10.23
2019-01-16T08:11:18.510Z,10.18
2019-01-16T08:12:18.527Z,10.21
2019-01-16T08:13:18.531Z,10.18
2019-01-16T08:14:18.581Z,10.09
2019-01-16T08:15:18.570Z,10.05
2019-01-16T08:16:18.532Z,10.07
2019-01-16T08:17:18.541Z,10.05
2019-01-16T08:18:18.533Z,10.05
2019-01-16T08:19:18.540Z,9.94
2019-01-16T08:20:24.866Z,9.94
2019-01-16T08:21:18.615Z,9.95
2019-01-16T08:22:18.551Z,10.12
2019-01-16T08:23:18.560Z,10.13
2019-01-16T08:24:18.612Z,10.10
2019-01-16T08:25:18.572Z,10.10
2019-01-16T08:26:18.583Z,10.10
2019-01-16T08:27:18.588Z,10.12
2019-01-16T08:28:18.633Z,10.06
2019-01-16T08:29:18.657Z,10.15
2019-01-16T08:30:18.596Z,10.05
2019-01-16T08:31:18.601Z,10.15
2019-01-16T08:32:18.635Z,10.15
2019-01-16T08:33:18.627Z,10.10
2019-01-16T08:34:18.628Z,10.15
2019-01-16T08:35:18.688Z,10.10
2019-01-16T08:36:18.633Z,10.12
2019-01-16T08:37:18.625Z,10.20
2019-01-16T08:38:18.651Z,10.10
2019-01-16T08:39:18.731Z,10.18
2019-01-16T08:40:18.717Z,10.15
2019-01-16T08:41:18.651Z,10.10
2019-01-16T08:42:18.690Z,10.20
2019-01-16T08:43:18.665Z,10.15
2019-01-16T08:44:18.670Z,10.24
2019-01-16T08:45:18.663Z,10.21
2019-01-16T08:46:18.739Z,10.27
2019-01-16T08:47:18.679Z,10.25
2019-01-16T08:48:18.681Z,10.27
2019-01-16T08:49:18.682Z,10.10
2019-01-16T08:50:18.729Z,10.10
2019-01-16T08:51:18.703Z,10.13
2019-01-16T08:52:18.737Z,10.20
2019-01-16T08:53:18.728Z,10.20
2019-01-16T08:54:18.733Z,10.21
2019-01-16T08:55:18.717Z,10.27
2019-01-16T08:56:18.752Z,10.25
2019-01-16T08:57:19.001Z,10.18
2019-01-16T08:58:18.741Z,10.18
2019-01-16T08:59:18.743Z,10.20
2019-01-16T09:00:18.757Z,10.07
2019-01-16T09:01:18.790Z,10.21
2019-01-16T09:02:18.773Z,10.24
2019-01-16T09:03:18.753Z,10.17
2019-01-16T09:04:18.761Z,10.27
2019-01-16T09:05:18.788Z,10.27
2019-01-16T09:06:18.793Z,10.24
2019-01-16T09:07:18.822Z,10.24
2019-01-16T09:08:18.788Z,10.23
2019-01-16T09:09:18.783Z,10.12
2019-01-16T09:10:18.811Z,10.24
2019-01-16T09:11:18.793Z,10.20
2019-01-16T09:12:18.822Z,10.23
2019-01-16T09:13:18.817Z,10.30
2019-01-16T09:14:18.854Z,10.24
2019-01-16T09:15:18.838Z,10.28
2019-01-16T09:16:18.874Z,10.28
2019-01-16T09:17:18.831Z,10.28
2019-01-16T09:18:18.835Z,10.25
2019-01-16T09:19:18.833Z,10.28
2019-01-16T09:20:18.852Z,10.33
2019-01-16T09:21:18.862Z,10.36
2019-01-16T09:22:18.929Z,10.36
2019-01-16T09:23:18.871Z,10.36
2019-01-16T09:24:18.935Z,10.31
2019-01-16T09:25:18.904Z,10.24
2019-01-16T09:26:18.867Z,10.23
2019-01-16T09:27:18.874Z,10.27
2019-01-16T09:28:18.953Z,10.23
2019-01-16T09:29:18.890Z,10.28
2019-01-16T09:30:18.893Z,10.27
2019-01-16T09:31:18.889Z,10.31
2019-01-16T09:32:18.899Z,10.31
2019-01-16T09:33:18.908Z,10.31
2019-01-16T09:34:18.941Z,10.24
2019-01-16T09:35:18.946Z,10.23
2019-01-16T09:36:18.920Z,10.23
2019-01-16T09:37:18.932Z,10.28
2019-01-16T09:38:18.921Z,10.27
2019-01-16T09:39:18.994Z,10.28
2019-01-16T09:40:18.942Z,10.25
2019-01-16T09:41:18.943Z,10.28
2019-01-16T09:42:18.946Z,10.27
2019-01-16T09:43:18.960Z,10.30
2019-01-16T09:44:18.971Z,10.30
2019-01-16T09:45:19.025Z,10.24
2019-01-16T09:46:18.979Z,10.25
2019-01-16T09:47:18.987Z,10.27
2019-01-16T09:48:18.998Z,10.28
2019-01-16T09:49:19.005Z,10.30
2019-01-16T09:50:19.027Z,10.30
2019-01-16T09:51:19.017Z,10.38
2019-01-16T09:52:19.018Z,10.36
2019-01-16T09:53:19.031Z,10.36
2019-01-16T09:54:19.039Z,10.41
2019-01-16T09:55:19.039Z,10.45
2019-01-16T09:56:19.048Z,10.34
2019-01-16T09:57:19.293Z,10.33
2019-01-16T09:58:19.066Z,10.43
2019-01-16T09:59:19.032Z,10.42
2019-01-16T10:00:19.083Z,10.43
2019-01-16T10:01:19.085Z,10.39
2019-01-16T10:02:19.048Z,10.48
2019-01-16T10:03:19.057Z,10.45
2019-01-16T10:04:19.069Z,10.51
2019-01-16T10:05:19.107Z,10.55
2019-01-16T10:06:19.078Z,10.51
2019-01-16T10:07:19.078Z,10.59
2019-01-16T10:08:19.079Z,10.53
2019-01-16T10:09:19.094Z,10.57
2019-01-16T10:10:19.118Z,10.61
2019-01-16T10:11:19.120Z,10.64
2019-01-16T10:12:19.110Z,10.48
2019-01-16T10:13:19.161Z,10.48
2019-01-16T10:14:19.120Z,10.62
2019-01-16T10:15:19.136Z,10.58
2019-01-16T10:16:19.133Z,10.58
2019-01-16T10:17:19.133Z,10.59
2019-01-16T10:18:19.201Z,10.62
2019-01-16T10:19:19.173Z,10.58
2019-01-16T10:20:19.160Z,10.55
2019-01-16T10:21:19.167Z,10.65
2019-01-16T10:22:19.159Z,10.57
2019-01-16T10:23:19.165Z,10.62
2019-01-16T10:24:19.199Z,10.62
2019-01-16T10:25:19.176Z,10.71
2019-01-16T10:26:19.187Z,10.68
2019-01-16T10:27:19.178Z,10.72
2019-01-16T10:28:19.172Z,10.69
2019-01-16T10:29:19.268Z,10.71
2019-01-16T10:30:19.183Z,10.65
2019-01-16T10:31:19.204Z,10.71
2019-01-16T10:32:19.222Z,10.67
2019-01-16T10:33:19.208Z,10.71
2019-01-16T10:34:19.216Z,10.76
2019-01-16T10:35:19.348Z,10.82
2019-01-16T10:36:19.229Z,10.80
2019-01-16T10:37:19.228Z,10.83
2019-01-16T10:38:19.240Z,10.84
2019-01-16T10:39:19.272Z,10.86
2019-01-16T10:40:19.249Z,10.86
2019-01-16T10:41:19.292Z,10.83
2019-01-16T10:42:19.272Z,10.80
2019-01-16T10:43:19.267Z,10.82
2019-01-16T10:44:19.261Z,10.90
2019-01-16T10:45:19.265Z,10.90
2019-01-16T10:46:19.275Z,10.95
2019-01-16T10:47:19.302Z,10.97
2019-01-16T10:48:19.291Z,10.95
2019-01-16T10:49:19.302Z,10.92
2019-01-16T10:50:19.299Z,10.94
2019-01-16T10:51:21.007Z,10.86
2019-01-16T10:52:19.320Z,10.90
2019-01-16T10:53:19.324Z,10.86
2019-01-16T10:54:19.333Z,10.86
2019-01-16T10:55:19.341Z,10.98
2019-01-16T10:56:19.390Z,10.97
2019-01-16T10:57:19.413Z,10.83
2019-01-16T10:58:19.341Z,10.83
2019-01-16T10:59:19.330Z,10.87
2019-01-16T11:00:19.335Z,10.82
2019-01-16T11:01:19.352Z,10.83
2019-01-16T11:02:19.353Z,10.71
2019-01-16T11:03:19.398Z,10.71
2019-01-16T11:04:19.380Z,10.76
2019-01-16T11:05:19.425Z,10.75
2019-01-16T11:06:19.378Z,10.76
2019-01-16T11:07:19.384Z,10.75
2019-01-16T11:08:19.404Z,10.67
2019-01-16T11:09:19.455Z,10.75
2019-01-16T11:10:19.400Z,10.71
2019-01-16T11:11:19.448Z,10.59
2019-01-16T11:12:19.410Z,10.61
2019-01-16T11:13:19.431Z,10.57
2019-01-16T11:14:19.449Z,10.67
2019-01-16T11:15:19.429Z,10.59
2019-01-16T11:16:19.435Z,10.71
2019-01-16T11:17:19.442Z,10.69
2019-01-16T11:18:19.472Z,10.59
2019-01-16T11:19:19.459Z,10.64
2019-01-16T11:20:19.469Z,10.57
2019-01-16T11:21:19.630Z,10.59
2019-01-16T11:22:19.462Z,10.64
2019-01-16T11:23:19.484Z,10.58
2019-01-16T11:24:19.487Z,10.61
2019-01-16T11:25:19.483Z,10.69
2019-01-16T11:26:19.501Z,10.67
2019-01-16T11:27:19.493Z,10.65
2019-01-16T11:28:19.514Z,10.72
2019-01-16T11:29:19.523Z,10.64
2019-01-16T11:30:19.504Z,10.69
2019-01-16T11:31:19.546Z,10.69
2019-01-16T11:32:19.529Z,10.76
2019-01-16T11:33:19.505Z,10.82
2019-01-16T11:34:19.550Z,10.84
2019-01-16T11:35:19.532Z,10.75
2019-01-16T11:36:19.528Z,10.69
2019-01-16T11:37:19.586Z,10.77
2019-01-16T11:38:19.532Z,10.69
2019-01-16T11:39:19.554Z,10.86
2019-01-16T11:40:19.553Z,10.76
2019-01-16T11:41:19.556Z,10.84
2019-01-16T11:42:19.603Z,10.76
2019-01-16T11:43:19.598Z,10.82
2019-01-16T11:44:19.577Z,10.76
2019-01-16T11:45:19.613Z,10.86
2019-01-16T11:46:19.580Z,10.77
2019-01-16T11:47:19.655Z,10.89
2019-01-16T11:48:19.595Z,10.86
2019-01-16T11:49:19.605Z,10.87
2019-01-16T11:50:19.617Z,10.92
2019-01-16T11:51:19.616Z,10.92
2019-01-16T11:52:19.661Z,10.97
2019-01-16T11:53:19.688Z,10.90
2019-01-16T11:54:19.742Z,10.89
2019-01-16T11:55:19.686Z,10.89
2019-01-16T11:56:19.648Z,11.04
2019-01-16T11:57:19.668Z,10.90
2019-01-16T11:58:19.935Z,10.89
2019-01-16T11:59:19.669Z,11.05
2019-01-16T12:00:19.682Z,10.98
2019-01-16T12:01:19.709Z,11.01
2019-01-16T12:02:19.667Z,11.07
2019-01-16T12:03:19.701Z,11.01
2019-01-16T12:04:19.708Z,10.95
2019-01-16T12:05:19.712Z,10.98
2019-01-16T12:06:19.677Z,10.98
2019-01-16T12:07:19.744Z,11.08
2019-01-16T12:08:19.696Z,11.01
2019-01-16T12:09:19.746Z,11.12
2019-01-16T12:10:19.756Z,11.04
2019-01-16T12:11:19.722Z,11.05
2019-01-16T12:12:19.720Z,10.97
2019-01-16T12:13:19.922Z,11.01
2019-01-16T12:14:19.791Z,10.98
2019-01-16T12:15:19.752Z,11.01
2019-01-16T12:16:19.747Z,11.01
2019-01-16T12:17:19.749Z,11.01
2019-01-16T12:18:19.789Z,10.97
2019-01-16T12:19:20.031Z,10.97
2019-01-16T12:20:19.893Z,11.01
2019-01-16T12:21:26.396Z,10.90
2019-01-16T12:22:19.789Z,10.98
2019-01-16T12:23:19.790Z,10.98
2019-01-16T12:24:19.801Z,10.92
2019-01-16T12:25:19.810Z,10.90
2019-01-16T12:26:19.809Z,11.01
2019-01-16T12:27:19.803Z,11.02
2019-01-16T12:28:19.913Z,10.98
2019-01-16T12:29:19.826Z,11.00
2019-01-16T12:30:19.845Z,11.01
2019-01-16T12:31:19.834Z,10.98
2019-01-16T12:32:19.821Z,10.94
2019-01-16T12:33:19.858Z,10.89
2019-01-16T12:34:19.842Z,10.97
2019-01-16T12:35:19.876Z,10.89
2019-01-16T12:36:19.990Z,10.95
2019-01-16T12:37:19.854Z,10.89
2019-01-16T12:38:19.852Z,10.95
2019-01-16T12:39:19.869Z,10.83
2019-01-16T12:40:19.872Z,10.80
2019-01-16T12:41:19.901Z,10.86
2019-01-16T12:42:19.892Z,10.82
2019-01-16T12:43:19.891Z,10.90
2019-01-16T12:44:19.896Z,10.90
2019-01-16T12:45:19.899Z,10.90
2019-01-16T12:46:19.945Z,11.00
2019-01-16T12:47:19.939Z,11.02
2019-01-16T12:48:19.928Z,10.94
2019-01-16T12:49:19.913Z,10.98
2019-01-16T12:50:19.921Z,10.98
2019-01-16T12:51:19.953Z,10.90
2019-01-16T12:52:19.995Z,10.97
2019-01-16T12:53:19.957Z,10.89
2019-01-16T12:54:19.987Z,10.89
2019-01-16T12:55:19.958Z,10.87
2019-01-16T12:56:19.967Z,10.92
2019-01-16T12:57:19.972Z,10.80
2019-01-16T12:58:20.076Z,10.82
2019-01-16T12:59:19.985Z,10.83
2019-01-16T13:00:19.989Z,10.84
2019-01-16T13:01:20.000Z,10.82
2019-01-16T13:02:20.001Z,10.86